Home > Products > Valid Products > MTR

000
SAUS43 KDTX 242353
MTRP58
METAR KP58 242351Z AUTO 23020G33KT 190V270 03/M01 A2934 RMK AO1 PK
WND 24036/2254 SLP939 60041 T00331006 10128 20028 51079





000
SAUS43 KDTX 242253
MTRP58
METAR KP58 242251Z AUTO 23019G35KT 200V260 03/01 A2928 RMK AO1 PK
WND 24042/2157 PRESRR SLP919 T00330006





000
SAUS43 KDTX 242153
MTRP58
METAR KP58 242151Z AUTO 23021G36KT 07/03 A2920 RMK AO1 PK WND
23039/2134 PRESRR SLP890 P0001 T00670028





000
SAUS43 KDTX 242153
MTRP58
METAR KP58 242151Z AUTO 23021G36KT 07/03 A2920 RMK AO1 PK WND
23039/2134 PRESRR SLP890 P0001 T00670028





000
SAUS43 KDTX 242052
MTRP58
METAR KP58 242051Z AUTO 23008G32KT 11/08 A2910 RMK AO1 PK WND
24032/2045 PRESRR SLP856 P0020 60040 T01060083 53029





000
SAUS43 KDTX 241953
MTRP58
METAR KP58 241951Z AUTO VRB06KT 12/11 A2904 RMK AO1 SLP833 P0019
T01170111





000
SAUS43 KDTX 241953
MTRP58
METAR KP58 241951Z AUTO VRB06KT 12/11 A2904 RMK AO1 SLP833 P0019
T01170111





000
SAUS43 KDTX 241853
MTRP58
METAR KP58 241851Z AUTO 23007KT 180V260 13/11 A2901 RMK AO1 SLP826
P0001 T01280106





000
SAUS43 KDTX 241754
MTRP58
METAR KP58 241751Z AUTO 22006KT 12/11 A2901 RMK AO1 SLP826 P0003
60012 T01220111 10133 20117 58007





000
SAUS43 KDTX 241652
MTRP58
METAR KP58 241651Z AUTO 21009G19KT 13/10 A2902 RMK AO1 SLP829
T01330100





000
SAUS43 KDTX 241554
MTRP58
METAR KP58 241551Z AUTO 22009G17KT 13/10 A2903 RMK AO1 SLP834
T01280100





000
SAUS43 KDTX 241454
MTRP58
METAR KP58 241451Z AUTO 21007KT 180V240 12/10 A2904 RMK AO1 SLP833
P0003 60009 T01170100 51017





000
SAUS43 KDTX 241354
MTRP58
METAR KP58 241351Z AUTO 22007G19KT 180V240 12/10 A2904 RMK AO1
SLP833 P0004 T01170100 $





000
SAUS43 KDTX 241254
MTRP58
METAR KP58 241251Z AUTO 22011G19KT 170V250 12/10 A2902 RMK AO1
SLP829 P0002 T01170100 $





000
SAUS43 KDTX 241153
MTRP58
METAR KP58 241151Z AUTO 23014G20KT 12/10 A2898 RMK AO1 SLP815 60033
70066 T01220100 10122 20067 55006 $





000
SAUS43 KDTX 241053
MTRP58
METAR KP58 241051Z AUTO 20008KT 12/11 A2896 RMK AO1 SLP807 P0007
T01220106 $





000
SAUS43 KDTX 240954
MTRP58
METAR KP58 240951Z AUTO 16007KT 11/09 A2897 RMK AO1 SLP810 P0001
T01060094 $





000
SAUS43 KDTX 240954
MTRP58
METAR KP58 240951Z AUTO 16007KT 11/09 A2897 RMK AO1 SLP810 P0001
T01060094 $





000
SAUS43 KDTX 240853
MTRP58
METAR KP58 240851Z AUTO 15010G18KT 09/08 A2900 RMK AO1 SLP823 P0002
60025 T00890083 56066 $





000
SAUS43 KDTX 240754
MTRP58
METAR KP58 240751Z AUTO 15015G23KT 09/08 A2905 RMK AO1 SLP840 P0008
T00890078 $





000
SAUS43 KDTX 240653
MTRP58
METAR KP58 240651Z AUTO 14016G23KT 07/06 A2911 RMK AO1 PK WND
14028/0554 PRESFR SLP861 P0015 T00720061 $





000
SAUS43 KDTX 240552
MTRP58
METAR KP58 240551Z AUTO 14019G28KT 07/06 A2920 RMK AO1 PK WND
14028/0548 PRESFR SLP890 P0013 60033 T00720061 10083 20044 57089 $





000
SAUS43 KDTX 240454
MTRP58
METAR KP58 240451Z AUTO 13018KT 07/06 A2929 RMK AO1 PRESFR SLP921
P0014 T00670056 401110028 $





000
SAUS43 KDTX 240352
MTRP58
METAR KP58 240351Z AUTO 12013KT 04/04 A2938 RMK AO1 PRESFR SLP953
P0005 T00440039 $





000
SAUS43 KDTX 240253
MTRP58
METAR KP58 240251Z AUTO 15006KT 08/06 A2947 RMK AO1 SLP982 P0001
60001 T00780056 58045 $





000
SAUS43 KDTX 240153
MTRP58
METAR KP58 240151Z AUTO 15008KT 08/05 A2952 RMK AO1 SLP000 T00780050
$





000
SAUS43 KDTX 240054
MTRP58
METAR KP58 240051Z AUTO 16008KT 08/06 A2957 RMK AO1 SLP018 T00830056
$





000
SAUS43 KDTX 232353
MTRP58
METAR KP58 232351Z AUTO 15009KT 08/06 A2961 RMK AO1 SLP028 T00830056
10111 20072 58028 $





000
SAUS43 KDTX 232253
MTRP58
METAR KP58 232251Z AUTO 15006KT 07/06 A2964 RMK AO1 SLP043 T00720056
$





000
SAUS43 KDTX 232152
MTRP58
METAR KP58 232151Z AUTO 16007KT 08/06 A2966 RMK AO1 SLP048 T00830056
$





000
SAUS43 KDTX 232152
MTRP58
METAR KP58 232151Z AUTO 16007KT 08/06 A2966 RMK AO1 SLP048 T00830056
$





000
SAUS43 KDTX 232053
MTRP58
METAR KP58 232051Z AUTO 16009G14KT 09/06 A2969 RMK AO1 SLP057
T00890061 56027 $





000
SAUS43 KDTX 231953
MTRP58
METAR KP58 231951Z AUTO 16007KT 09/07 A2971 RMK AO1 SLP063 T00890067
$





000
SAUS43 KDTX 231953
MTRP58
METAR KP58 231951Z AUTO 16007KT 09/07 A2971 RMK AO1 SLP063 T00890067
$





000
SAUS43 KDTX 231854
MTRP58
METAR KP58 231851Z AUTO 17008KT 10/07 A2974 RMK AO1 SLP074 T01000067
$





000
SAUS43 KDTX 231754
MTRP58
METAR KP58 231751Z AUTO 17010G16KT 11/07 A2977 RMK AO1 SLP083
T01060072 10106 20072 58028 $





000
SAUS43 KDTX 231652
MTRP58
METAR KP58 231651Z AUTO 16007KT 09/07 A2981 RMK AO1 SLP098 T00940067
$





000
SAUS43 KDTX 231552
MTRP58
METAR KP58 231551Z AUTO VRB05KT 09/06 A2986 RMK AO1 SLP115 T00890061
$





000
SAUS43 KDTX 231552
MTRP58
METAR KP58 231551Z AUTO VRB05KT 09/06 A2986 RMK AO1 SLP115 T00890061
$





000
SAUS43 KDTX 231454
MTRP58
METAR KP58 231451Z AUTO VRB05KT 08/06 A2985 RMK AO1 SLP114 T00830056
53002 $





000
SAUS43 KDTX 231354
MTRP58
METAR KP58 231351Z AUTO 18004KT 08/06 A2985 RMK AO1 SLP113 T00830056
$





000
SAUS43 KDTX 231252
MTRP58
METAR KP58 231251Z AUTO 16004KT 07/05 A2984 RMK AO1 SLP112 T00720050
$





000
SAUS43 KDTX 231154
MTRP58
METAR KP58 231151Z AUTO 16004KT 08/06 A2985 RMK AO1 SLP113 70010
T00780056 10083 20028 56009 $





000
SAUS43 KDTX 231054
MTRP58
METAR KP58 231051Z AUTO 16003KT 04/03 A2986 RMK AO1 SLP118 T00390028
$





000
SAUS43 KDTX 230954
MTRP58
METAR KP58 230951Z AUTO VRB03KT 06/04 A2986 RMK AO1 SLP119 T00560044
$





000
SAUS43 KDTX 230954
MTRP58
METAR KP58 230951Z AUTO VRB03KT 06/04 A2986 RMK AO1 SLP119 T00560044
$





000
SAUS43 KDTX 230854
MTRP58
METAR KP58 230851Z AUTO 00000KT 08/07 A2988 RMK AO1 SLP122 T00780067
53000 $





000
SAUS43 KDTX 230754
MTRP58
METAR KP58 230751Z AUTO 00000KT 08/06 A2988 RMK AO1 SLP122 T00830061
$





000
SAUS43 KDTX 230653
MTRP58
METAR KP58 230651Z AUTO VRB03KT 08/06 A2987 RMK AO1 SLP121 T00780061
$





000
SAUS43 KDTX 230553
MTRP58
METAR KP58 230551Z AUTO 24006KT 08/06 A2987 RMK AO1 SLP122 T00830061
10083 20050 51005 $





000
SAUS43 KDTX 230452
MTRP58
METAR KP58 230451Z AUTO 23004KT 08/06 A2987 RMK AO1 SLP123 T00780061
400781039 $





000
SAUS43 KDTX 230354
MTRP58
METAR KP58 230351Z AUTO 23005KT 07/06 A2986 RMK AO1 SLP118 T00720056
$





000
SAUS43 KDTX 230254
MTRP58
METAR KP58 230251Z AUTO 22005KT 07/06 A2986 RMK AO1 SLP117 T00720056
55000 $





000
SAUS43 KDTX 230154
MTRP58
METAR KP58 230151Z AUTO 22007KT 190V260 06/05 A2985 RMK AO1 SLP117
T00610050 $





000
SAUS43 KDTX 230054
MTRP58
METAR KP58 230051Z AUTO VRB04KT 06/04 A2986 RMK AO1 SLP120 T00560044
$





000
SAUS43 KDTX 222354
MTRP58
METAR KP58 222351Z AUTO VRB06KT 05/04 A2986 RMK AO1 SLP119 T00500039
10050 20033 51008 $





000
SAUS43 KDTX 222254
MTRP58
METAR KP58 222251Z AUTO 20007KT 180V240 05/03 A2986 RMK AO1 SLP119
T00500028 $





000
SAUS43 KDTX 222156 COR
MTRP58
METAR KP58 222151Z AUTO 21008G15KT 05/03 A2985 RMK AO1 SLP117
T00500028 $





000
SAUS43 KDTX 222156 COR
MTRP58
METAR KP58 222151Z AUTO 21008G15KT 05/03 A2985 RMK AO1 SLP117
T00500028 $





000
SAUS43 KDTX 222154 COR
MTRP58
METAR KP58 222151Z AUTO 21008G15KT 05/03 A2985 RMK AO1 SLP117
T00500028 $





000
SAUS43 KDTX 222154 COR
MTRP58
METAR KP58 222151Z AUTO 21008G15KT 05/03 A2985 RMK AO1 SLP117
T00500028 $





000
SAUS43 KDTX 222054
MTRP58
METAR KP58 222051Z AUTO 20007G17KT 120V230 05/02 A2983 RMK AO1
PRESFR SLP112 T00500022 $





000
SAUS43 KDTX 221953
MTRP58
METAR KP58 221951Z AUTO 22012G20KT 04/02 A2985 RMK AO1 SLP118
T00440022 $





000
SAUS43 KDTX 221853
MTRP58
METAR KP58 221851Z AUTO VRB05G18KT 04/02 A2986 RMK AO1 SLP122
T00390017





000
SAUS43 KDTX 221752
MTRP58
METAR KP58 221751Z AUTO 23011G20KT 03/01 A2989 RMK AO1 SLP130 60010
T00330011 10033 20000 58022





000
SAUS43 KDTX 221654
MTRP58
METAR KP58 221651Z AUTO 23011G22KT 03/01 A2991 RMK AO1 SLP140
T00280006





000
SAUS43 KDTX 221552
MTRP58
METAR KP58 221551Z AUTO 23015G26KT 02/M01 A2993 RMK AO1 PK WND
24026/1550 SLP148 P0001 T00221006





000
SAUS43 KDTX 221552
MTRP58
METAR KP58 221551Z AUTO 23015G26KT 02/M01 A2993 RMK AO1 PK WND
24026/1550 SLP148 P0001 T00221006





000
SAUS43 KDTX 221454
MTRP58
METAR KP58 221451Z AUTO 23010G21KT 180V260 01/M01 A2995 RMK AO1
SLP155 P0006 60009 T00111011 58024





000
SAUS43 KDTX 221354
MTRP58
METAR KP58 221351Z AUTO 22009G17KT 01/M03 A2999 RMK AO1 SLP167 P0003
T00061028





000
SAUS43 KDTX 221254
MTRP58
METAR KP58 221251Z AUTO 21009G18KT 180V250 00/M08 A3000 RMK AO1
SLP172 T00001083





000
SAUS43 KDTX 221154
MTRP58
METAR KP58 221151Z AUTO 21006G16KT 00/M09 A3002 RMK AO1 SLP180
T00001094 10000 21039 56028





000
SAUS43 KDTX 221054
MTRP58
METAR KP58 221051Z AUTO 21008G18KT M01/M11 A3005 RMK AO1 SLP188
T10061106





000
SAUS43 KDTX 220954
MTRP58
METAR KP58 220951Z AUTO 20009G15KT M02/M12 A3006 RMK AO1 SLP194
T10171117





000
SAUS43 KDTX 220854
MTRP58
METAR KP58 220851Z AUTO 21009G16KT 170V260 M03/M12 A3011 RMK AO1
SLP209 T10281122 56031





000
SAUS43 KDTX 220754
MTRP58
METAR KP58 220751Z AUTO 20006G16KT M03/M12 A3014 RMK AO1 SLP220
T10281122





000
SAUS43 KDTX 220654
MTRP58
METAR KP58 220651Z AUTO 21007G15KT M03/M12 A3016 RMK AO1 PRESFR
SLP226 T10331117





000
SAUS43 KDTX 220556 COR
MTRP58
METAR KP58 220551Z AUTO 21010G19KT M04/M12 A3020 RMK AO1 SLP241
T10391117 11039 21056 56024





000
SAUS43 KDTX 220553 COR
MTRP58
METAR KP58 220551Z AUTO 21010G19KT M04/M12 A3020 RMK AO1 SLP241
T10391117 11039 21056 56024





000
SAUS43 KDTX 220454
MTRP58
METAR KP58 220451Z AUTO 22009G16KT M04/M11 A3022 RMK AO1 SLP249
T10391111 410331072





000
SAUS43 KDTX 220354
MTRP58
METAR KP58 220351Z AUTO VRB04G16KT M04/M11 A3025 RMK AO1 SLP257
T10391111





000
SAUS43 KDTX 220253
MTRP58
METAR KP58 220251Z AUTO 21007KT M04/M12 A3027 RMK AO1 SLP266
T10441117 58024





000
SAUS43 KDTX 220157 COR
MTRP58
METAR KP58 220151Z AUTO 00000KT M05/M12 A3030 RMK AO1 SLP276
T10501122





000
SAUS43 KDTX 220053
MTRP58
METAR KP58 220051Z AUTO 21006KT M06/M12 A3033 RMK AO1 SLP287
T10561122





    US Dept of Commerce
    National Oceanic and Atmospheric Administration
    National Weather Service
    1325 East West Highway
    Silver Spring, MD 20910
    Page Author: NWS Internet Services Team
Disclaimer
Information Quality
Credits
Glossary
Privacy Policy
Freedom of Information Act (FOIA)
About Us
Career Opportunities